Time;durP1;ratioP1;P1;durP2;ratioP2;P2;SDS_P1;SDS_P2;PMS_P1;PMS_P2;Temp;Humidity;BMP_temperature;BMP_pressure;BME280_temperature;BME280_humidity;BME280_pressure;Samples;Min_cycle;Max_cycle;Signal;HPM_P1;HPM_P2
2021/12/27 00:00:54;;;;;;;46.28;21.95;;;-6.60;99.90;;;-6.87;65.86;100734.94;4938093;28;20621;-63
2021/12/27 00:03:24;;;;;;;41.80;23.73;;;-6.60;99.90;;;-6.95;65.95;100727.50;4938912;29;20215;-62
2021/12/27 00:05:53;;;;;;;45.35;22.50;;;-6.60;99.90;;;-6.87;65.76;100727.03;4938565;29;20188;-63
2021/12/27 00:08:23;;;;;;;39.50;22.05;;;-6.60;99.90;;;-6.88;65.41;100726.19;4938910;29;20646;-62
2021/12/27 00:10:51;;;;;;;49.75;24.05;;;-6.60;99.90;;;-6.79;65.60;100714.25;4938369;29;20181;-63
2021/12/27 00:13:20;;;;;;;49.90;21.90;;;-6.60;99.90;;;-6.84;65.94;100722.41;4939019;29;20221;-62
2021/12/27 00:15:48;;;;;;;41.55;23.73;;;-6.60;99.90;;;-6.80;65.18;100717.81;4938976;29;20205;-63
2021/12/27 00:18:16;;;;;;;39.47;21.95;;;-6.50;99.90;;;-6.86;65.96;100729.56;4938687;29;20561;-63
2021/12/27 00:20:46;;;;;;;34.90;21.48;;;-6.60;99.90;;;-6.81;65.70;100731.91;4938630;29;20231;-63
2021/12/27 00:23:14;;;;;;;44.33;26.65;;;-6.50;99.90;;;-6.81;65.50;100724.84;4938069;29;20287;-63
2021/12/27 00:25:43;;;;;;;40.55;25.83;;;-6.50;99.90;;;-6.76;64.95;100714.03;4938367;29;20299;-63
2021/12/27 00:28:11;;;;;;;45.08;20.67;;;-6.50;99.90;;;-6.84;65.74;100705.78;4938231;29;20198;-62
2021/12/27 00:30:39;;;;;;;44.15;24.13;;;-6.50;99.90;;;-6.81;65.27;100706.44;4936862;29;20650;-63
2021/12/27 00:33:08;;;;;;;48.63;26.35;;;-6.50;99.90;;;-6.85;65.97;100694.41;4938117;29;20224;-63
2021/12/27 00:35:37;;;;;;;46.22;26.17;;;-6.50;99.90;;;-6.75;65.25;100689.41;4938174;29;20597;-63
2021/12/27 00:38:08;;;;;;;49.75;25.98;;;-6.50;99.90;;;-6.81;65.15;100684.53;4937985;29;20201;-64
2021/12/27 00:40:36;;;;;;;44.67;24.30;;;-6.50;99.90;;;-6.86;65.68;100687.47;4938957;29;20643;-62
2021/12/27 00:43:06;;;;;;;46.00;25.00;;;-6.50;99.90;;;-6.84;65.68;100696.13;4938341;29;20184;-59
2021/12/27 00:45:35;;;;;;;45.47;25.02;;;-6.50;99.90;;;-6.80;65.29;100687.06;4938107;29;20200;-63
2021/12/27 00:48:04;;;;;;;45.45;24.05;;;-6.50;99.90;;;-6.79;65.50;100686.16;4937827;29;20179;-62
2021/12/27 00:50:33;;;;;;;43.97;24.75;;;-6.50;99.90;;;-6.76;64.90;100682.47;4937708;29;20181;-61
2021/12/27 00:53:01;;;;;;;45.20;23.60;;;-6.50;99.90;;;-6.78;65.02;100682.56;4938318;29;20678;-62
2021/12/27 00:55:31;;;;;;;49.15;26.58;;;-6.50;99.90;;;-6.74;65.67;100675.31;4937545;29;20260;-62
2021/12/27 00:58:00;;;;;;;42.65;23.63;;;-6.50;99.90;;;-6.79;65.56;100678.25;4938106;29;20189;-62
2021/12/27 01:00:28;;;;;;;42.92;27.33;;;-6.50;99.90;;;-6.76;65.57;100674.56;4937292;29;20185;-64
2021/12/27 01:02:58;;;;;;;36.58;24.02;;;-6.50;99.90;;;-6.73;65.28;100682.28;4937257;29;20181;-63
2021/12/27 01:05:27;;;;;;;44.28;25.73;;;-6.50;99.90;;;-6.80;65.35;100684.44;4936799;29;20201;-63
2021/12/27 01:07:56;;;;;;;41.58;26.88;;;-6.50;99.90;;;-6.81;65.23;100684.53;4936704;29;20200;-64
2021/12/27 01:10:48;;;;;;;53.85;27.33;;;-6.50;99.90;;;-6.77;65.07;100671.09;4936516;29;20177;-65
2021/12/27 01:13:23;;;;;;;46.40;24.92;;;-6.50;99.90;;;-6.85;65.72;100662.84;4936349;29;20220;-63
2021/12/27 01:16:10;;;;;;;42.13;26.98;;;-6.50;99.90;;;-6.76;65.20;100666.66;4936252;29;20177;-64
2021/12/27 01:18:44;;;;;;;46.25;26.15;;;-6.50;99.90;;;-6.79;65.95;100667.72;4936326;29;20192;-63
2021/12/27 01:21:13;;;;;;;52.95;26.05;;;-6.50;99.90;;;-6.73;65.41;100669.94;4936791;29;20188;-62
2021/12/27 01:23:43;;;;;;;47.97;25.58;;;-6.50;99.90;;;-6.77;65.60;100671.09;4935795;29;20208;-63
2021/12/27 01:26:12;;;;;;;49.15;27.95;;;-6.50;99.90;;;-6.70;65.32;100661.88;4936176;29;20203;-62
2021/12/27 01:28:42;;;;;;;53.08;29.73;;;-6.50;99.90;;;-6.78;65.64;100658.91;4935998;29;20192;-59
2021/12/27 01:31:12;;;;;;;51.42;27.58;;;-6.50;99.90;;;-6.75;64.83;100648.16;4936566;29;20177;-63
2021/12/27 01:33:43;;;;;;;54.42;31.60;;;-6.50;99.90;;;-6.81;65.32;100640.66;4936306;29;20227;-63
2021/12/27 01:36:12;;;;;;;54.60;28.30;;;-6.50;99.90;;;-6.74;65.29;100641.97;4936484;29;20185;-63
2021/12/27 01:38:41;;;;;;;53.78;28.70;;;-6.50;99.90;;;-6.71;65.61;100639.13;4936064;29;20208;-61
2021/12/27 01:41:13;;;;;;;48.00;29.65;;;-6.50;99.90;;;-6.67;65.51;100645.88;4935873;29;20188;-63
2021/12/27 01:43:44;;;;;;;51.55;28.80;;;-6.40;99.90;;;-6.58;64.87;100643.63;4935921;29;20285;-61
2021/12/27 01:46:16;;;;;;;54.00;26.05;;;-6.40;99.90;;;-6.52;64.29;100644.03;4935820;29;20181;-59
2021/12/27 01:48:54;;;;;;;35.30;22.67;;;-6.30;99.90;;;-6.53;64.75;100638.91;4936393;29;20612;-60
2021/12/27 01:51:25;;;;;;;57.17;30.83;;;-6.30;99.90;;;-6.47;64.92;100628.78;4936129;29;20228;-63
2021/12/27 01:53:54;;;;;;;55.25;30.02;;;-6.30;99.90;;;-6.47;64.45;100630.56;4936002;29;20217;-63
2021/12/27 01:56:23;;;;;;;39.58;27.30;;;-6.20;99.90;;;-6.44;64.15;100635.66;4936068;29;20611;-64
2021/12/27 01:58:56;;;;;;;50.85;27.88;;;-6.20;99.90;;;-6.53;64.95;100641.53;4935676;29;20195;-63
2021/12/27 02:01:26;;;;;;;50.78;26.48;;;-6.20;99.90;;;-6.51;64.57;100632.56;4935852;29;20177;-63
2021/12/27 02:03:57;;;;;;;45.20;25.42;;;-6.20;99.90;;;-6.49;64.79;100628.06;4935801;29;20217;-62
2021/12/27 02:06:26;;;;;;;66.28;29.23;;;-6.20;99.90;;;-6.51;64.24;100623.81;4936063;29;20549;-62
2021/12/27 02:08:55;;;;;;;57.63;29.70;;;-6.20;99.90;;;-6.41;64.26;100619.66;4936377;29;20181;-64
2021/12/27 02:11:23;;;;;;;48.60;29.00;;;-6.20;99.90;;;-6.41;64.11;100617.84;4935659;29;20197;-63
2021/12/27 02:13:53;;;;;;;48.17;28.65;;;-6.20;99.90;;;-6.39;63.93;100613.31;4935324;29;20217;-64
2021/12/27 02:16:23;;;;;;;50.28;27.08;;;-6.10;99.90;;;-6.35;63.42;100613.97;4936000;29;20552;-61
2021/12/27 02:18:52;;;;;;;59.03;34.08;;;-6.10;99.90;;;-6.37;64.27;100615.84;4935954;29;20184;-62
2021/12/27 02:21:24;;;;;;;52.53;28.13;;;-6.10;99.90;;;-6.41;64.05;100603.84;4936254;29;20227;-62
2021/12/27 02:23:57;;;;;;;47.95;28.88;;;-6.10;99.90;;;-6.36;64.03;100596.50;4935934;29;20584;-61
2021/12/27 02:26:25;;;;;;;60.50;29.17;;;-6.10;99.90;;;-6.47;64.06;100598.97;4936257;29;20264;-59
2021/12/27 02:28:54;;;;;;;58.70;32.80;;;-6.20;99.90;;;-6.52;64.52;100593.19;4935674;29;20177;-63
2021/12/27 02:31:23;;;;;;;52.15;29.40;;;-6.20;99.90;;;-6.38;64.30;100599.22;4935578;29;20189;-64
2021/12/27 02:33:51;;;;;;;53.40;26.92;;;-6.10;99.90;;;-6.50;64.60;100588.66;4935480;29;20235;-63
2021/12/27 02:36:24;;;;;;;55.08;31.02;;;-6.20;99.90;;;-6.54;64.73;100585.41;4938042;29;20181;-63
2021/12/27 02:38:52;;;;;;;56.65;29.05;;;-6.20;99.90;;;-6.45;64.27;100590.06;4939455;29;20177;-62
2021/12/27 02:41:21;;;;;;;64.32;32.85;;;-6.20;99.90;;;-6.38;64.91;100593.94;4939119;29;20232;-63
2021/12/27 02:43:49;;;;;;;50.75;28.17;;;-6.10;99.90;;;-6.32;64.13;100587.44;4938974;29;20215;-64
2021/12/27 02:46:18;;;;;;;60.63;28.92;;;-6.10;99.90;;;-6.25;63.48;100592.22;4938880;29;20189;-62
2021/12/27 02:48:49;;;;;;;61.67;28.88;;;-6.00;99.90;;;-6.23;64.11;100571.03;4939169;29;20709;-59
2021/12/27 02:51:21;;;;;;;55.10;29.85;;;-6.00;99.90;;;-6.19;63.74;100567.22;4938909;29;20178;-64
2021/12/27 02:53:50;;;;;;;57.25;31.00;;;-6.00;99.90;;;-6.10;63.72;100584.22;4938709;29;20315;-64
2021/12/27 02:56:19;;;;;;;48.25;30.33;;;-5.90;99.90;;;-6.03;63.58;100586.31;4938699;29;20170;-62
2021/12/27 02:58:49;;;;;;;52.05;29.90;;;-5.90;99.90;;;-6.04;63.57;100579.34;4938783;29;20173;-62
2021/12/27 03:01:22;;;;;;;49.75;29.20;;;-5.80;99.90;;;-6.03;63.27;100578.41;4939637;29;20238;-63
2021/12/27 03:03:50;;;;;;;52.58;29.77;;;-5.80;99.90;;;-6.04;63.02;100581.16;4939273;29;20276;-62
2021/12/27 03:06:20;;;;;;;51.15;31.10;;;-5.80;99.90;;;-6.00;63.02;100580.84;4939330;29;20284;-63
2021/12/27 03:08:51;;;;;;;50.67;28.48;;;-5.80;99.90;;;-5.92;62.60;100561.88;4939365;29;20236;-63
2021/12/27 03:11:19;;;;;;;57.65;30.77;;;-5.70;99.90;;;-5.98;63.44;100549.97;4938784;29;20193;-64
2021/12/27 03:13:51;;;;;;;56.20;31.33;;;-5.70;99.90;;;-5.96;62.88;100553.34;4938691;29;20244;-63
2021/12/27 03:16:23;;;;;;;54.40;30.20;;;-5.70;99.90;;;-6.00;63.51;100557.13;4938431;29;20177;-62
2021/12/27 03:18:55;;;;;;;51.83;30.83;;;-5.70;99.90;;;-5.96;63.18;100563.06;4938590;29;20600;-63
2021/12/27 03:21:25;;;;;;;47.00;27.77;;;-5.70;99.90;;;-5.90;63.52;100558.19;4938180;29;20232;-63
2021/12/27 03:23:54;;;;;;;52.30;29.27;;;-5.70;99.90;;;-5.92;63.17;100554.81;4938367;29;20749;-62
2021/12/27 03:26:23;;;;;;;52.72;28.02;;;-5.70;99.90;;;-5.83;63.16;100554.16;4938382;29;20184;-64
2021/12/27 03:28:51;;;;;;;60.55;29.45;;;-5.60;99.90;;;-5.81;63.13;100543.50;4938270;29;20185;-63
2021/12/27 03:31:19;;;;;;;51.38;28.33;;;-5.60;99.90;;;-5.81;63.37;100546.97;4938134;29;20733;-63
2021/12/27 03:33:49;;;;;;;51.17;31.65;;;-5.60;99.90;;;-5.80;63.33;100538.13;4937913;29;20704;-63
2021/12/27 03:36:23;;;;;;;55.85;29.15;;;-5.50;99.90;;;-5.77;62.63;100534.44;4937968;29;20185;-63
2021/12/27 03:38:53;;;;;;;44.75;25.88;;;-5.60;99.90;;;-5.77;63.07;100545.84;4937964;29;20195;-62
2021/12/27 03:41:25;;;;;;;64.22;30.10;;;-5.60;99.90;;;-5.76;62.82;100539.59;4938174;29;20192;-60
2021/12/27 03:43:54;;;;;;;48.72;27.58;;;-5.50;99.90;;;-5.76;62.42;100538.78;4937814;29;20761;-58
2021/12/27 03:46:22;;;;;;;54.08;27.08;;;-5.50;99.90;;;-5.72;62.40;100535.81;4937513;29;20256;-61
2021/12/27 03:48:51;;;;;;;44.88;28.25;;;-5.50;99.90;;;-5.71;62.63;100532.19;4937607;29;20264;-62
2021/12/27 03:51:19;;;;;;;48.55;27.98;;;-5.50;99.90;;;-5.64;62.29;100521.22;4937691;29;20189;-62
2021/12/27 03:53:47;;;;;;;51.60;28.45;;;-5.50;99.90;;;-5.59;62.95;100509.41;4937765;29;20236;-62
2021/12/27 03:56:17;;;;;;;45.40;28.77;;;-5.40;99.90;;;-5.61;62.65;100521.00;4937861;29;20204;-63
2021/12/27 03:58:53;;;;;;;55.60;28.52;;;-5.40;99.90;;;-5.59;62.86;100519.13;4937772;29;20176;-63
2021/12/27 04:01:23;;;;;;;47.45;30.05;;;-5.40;99.90;;;-5.59;62.15;100519.13;4937711;29;20196;-62
2021/12/27 04:03:56;;;;;;;54.92;27.65;;;-5.40;99.90;;;-5.64;62.31;100526.50;4937807;29;20216;-63
2021/12/27 04:06:27;;;;;;;48.85;28.10;;;-5.40;99.90;;;-5.77;62.74;100514.19;4937530;29;20181;-63
2021/12/27 04:08:56;;;;;;;43.85;28.77;;;-5.50;99.90;;;-5.74;62.69;100511.34;4937527;29;20169;-62
2021/12/27 04:11:26;;;;;;;51.63;28.20;;;-5.50;99.90;;;-5.71;63.03;100507.63;4937689;29;20232;-61
2021/12/27 04:13:58;;;;;;;59.88;28.80;;;-5.50;99.90;;;-5.81;63.15;100515.34;5002407;23;20295;-67
2021/12/27 04:16:27;;;;;;;54.58;26.83;;;-5.50;99.90;;;-5.78;62.95;100509.03;4918420;29;20181;-65
2021/12/27 04:18:55;;;;;;;51.13;28.95;;;-5.60;99.90;;;-5.68;62.72;100503.94;4918237;29;20182;-65
2021/12/27 04:21:24;;;;;;;56.88;29.52;;;-5.50;99.90;;;-5.68;63.08;100503.94;4918103;29;20241;-64
2021/12/27 04:23:52;;;;;;;54.33;30.30;;;-5.50;99.90;;;-5.60;63.28;100506.88;4918384;29;20268;-66
2021/12/27 04:26:22;;;;;;;57.40;28.90;;;-5.40;99.90;;;-5.51;62.66;100500.94;4918289;29;20217;-64
2021/12/27 04:28:53;;;;;;;47.65;26.65;;;-5.40;99.90;;;-5.45;62.82;100498.72;4918825;29;20199;-66
2021/12/27 04:31:21;;;;;;;52.05;31.02;;;-5.30;99.90;;;-5.52;63.23;100494.00;4918421;29;20186;-65
2021/12/27 04:33:50;;;;;;;52.35;30.90;;;-5.30;99.90;;;-5.42;62.73;100500.31;4918195;29;20660;-65
2021/12/27 04:36:19;;;;;;;44.70;28.27;;;-5.30;99.90;;;-5.33;62.38;100494.38;4918076;29;20682;-65
2021/12/27 04:38:47;;;;;;;56.35;29.92;;;-5.20;99.90;;;-5.28;62.11;100492.25;4916659;29;20249;-64
2021/12/27 04:41:21;;;;;;;50.97;28.10;;;-5.20;99.90;;;-5.27;61.76;100488.63;4918056;29;20193;-66
2021/12/27 04:43:50;;;;;;;51.72;29.95;;;-5.10;99.90;;;-5.29;62.16;100490.56;4917604;29;20182;-61
2021/12/27 04:46:19;;;;;;;50.08;29.02;;;-5.10;99.90;;;-5.23;61.69;100486.63;4917926;29;20186;-65
2021/12/27 04:48:51;;;;;;;60.70;32.22;;;-5.10;99.90;;;-5.24;61.46;100488.44;4917728;29;20178;-65
2021/12/27 04:51:21;;;;;;;53.20;29.15;;;-5.10;99.90;;;-5.25;61.80;100492.00;4917627;29;20280;-65
2021/12/27 04:53:51;;;;;;;59.72;30.73;;;-5.10;99.90;;;-5.15;61.63;100492.19;4917723;29;20296;-65
2021/12/27 04:56:19;;;;;;;56.00;28.10;;;-5.00;99.90;;;-5.12;61.28;100495.44;4917497;29;20238;-65
2021/12/27 04:58:47;;;;;;;55.00;30.40;;;-5.00;99.90;;;-5.12;60.89;100479.59;4917078;29;20296;-65
2021/12/27 05:01:16;;;;;;;53.90;28.90;;;-5.00;99.90;;;-5.20;61.46;100470.56;4917518;29;20190;-65
2021/12/27 05:03:46;;;;;;;53.80;29.77;;;-5.00;99.90;;;-5.21;61.42;100469.72;4917671;29;20190;-67
2021/12/27 05:06:15;;;;;;;58.10;30.98;;;-5.10;99.90;;;-5.14;61.46;100457.78;4921209;29;20215;-64
2021/12/27 05:08:43;;;;;;;53.38;32.03;;;-5.00;99.90;;;-5.30;61.92;100465.97;4920110;29;20280;-65
2021/12/27 05:11:12;;;;;;;58.08;29.70;;;-5.10;99.90;;;-5.28;61.69;100482.50;4917793;29;20217;-64
2021/12/27 05:13:40;;;;;;;48.78;30.23;;;-5.10;99.90;;;-5.25;62.01;100476.19;4917350;29;20284;-65
2021/12/27 05:16:08;;;;;;;56.47;31.67;;;-5.10;99.90;;;-5.17;61.72;100481.75;4917437;29;20182;-63
2021/12/27 05:18:37;;;;;;;42.45;26.60;;;-5.00;99.90;;;-5.25;62.04;100481.47;4917327;29;20190;-65
2021/12/27 05:21:07;;;;;;;69.43;28.73;;;-5.10;99.90;;;-5.24;61.87;100471.75;4917330;29;20189;-66
2021/12/27 05:23:36;;;;;;;56.35;30.80;;;-5.00;99.90;;;-5.19;62.14;100465.19;4917360;29;20237;-66
2021/12/27 05:26:04;;;;;;;56.03;27.85;;;-5.00;99.90;;;-5.15;62.00;100469.28;4917740;29;20213;-65
2021/12/27 05:28:32;;;;;;;66.63;31.42;;;-5.00;99.90;;;-5.02;61.78;100462.16;4916865;29;20182;-64
2021/12/27 05:31:01;;;;;;;54.95;28.02;;;-4.90;99.90;;;-5.02;61.81;100467.41;4916923;29;20244;-66
2021/12/27 05:33:29;;;;;;;53.50;30.95;;;-4.90;99.90;;;-4.94;62.13;100464.22;4917191;29;20185;-64
2021/12/27 05:35:58;;;;;;;54.17;30.90;;;-4.80;99.90;;;-4.92;61.68;100442.03;4916805;29;20265;-65
2021/12/27 05:38:28;;;;;;;53.78;30.75;;;-4.80;99.90;;;-4.81;61.43;100446.50;4917259;29;20181;-65
2021/12/27 05:40:56;;;;;;;53.92;29.15;;;-4.70;99.90;;;-4.86;61.88;100441.59;4916989;29;20566;-65
2021/12/27 05:43:27;;;;;;;54.47;29.00;;;-4.70;99.90;;;-4.98;62.10;100436.38;4917039;29;20224;-66
2021/12/27 05:45:55;;;;;;;46.78;27.15;;;-4.80;99.90;;;-4.96;62.20;100440.59;4916823;29;20220;-64
2021/12/27 05:48:24;;;;;;;52.10;29.63;;;-4.80;99.90;;;-4.92;61.87;100430.63;4916951;29;20190;-66
2021/12/27 05:50:52;;;;;;;51.13;30.83;;;-4.70;99.90;;;-4.92;61.83;100431.47;4916986;29;20185;-66
2021/12/27 05:53:20;;;;;;;53.45;30.90;;;-4.80;99.90;;;-4.79;62.02;100434.03;4917140;29;20190;-65
2021/12/27 05:55:51;;;;;;;49.20;27.85;;;-4.70;99.90;;;-4.75;61.81;100442.59;4916643;29;20209;-65
2021/12/27 05:58:20;;;;;;;50.85;28.60;;;-4.60;99.90;;;-4.77;62.13;100437.41;4917107;29;20196;-65
2021/12/27 06:00:48;;;;;;;49.28;31.02;;;-4.60;99.90;;;-4.79;62.17;100438.50;4917023;29;20177;-65
2021/12/27 06:03:17;;;;;;;59.20;32.53;;;-4.60;99.90;;;-4.63;61.70;100439.00;4917051;29;20189;-66
2021/12/27 06:05:46;;;;;;;63.65;30.98;;;-4.60;99.90;;;-4.54;61.47;100440.94;4917534;29;20205;-65
2021/12/27 06:08:15;;;;;;;52.88;30.85;;;-4.50;99.90;;;-4.63;61.83;100441.63;4917281;29;20185;-65
2021/12/27 06:10:43;;;;;;;57.80;28.55;;;-4.50;99.90;;;-4.62;61.92;100448.59;4917084;29;20199;-65
2021/12/27 06:13:13;;;;;;;64.45;31.52;;;-4.50;99.90;;;-4.52;61.64;100445.16;4919977;29;20196;-65
2021/12/27 06:15:43;;;;;;;58.30;31.67;;;-4.40;99.90;;;-4.56;61.88;100445.50;4921860;29;20255;-65
2021/12/27 06:18:11;;;;;;;53.08;30.80;;;-4.40;99.90;;;-4.46;61.80;100444.69;4919636;29;20548;-65
2021/12/27 06:20:40;;;;;;;49.53;29.30;;;-4.40;99.90;;;-4.28;61.25;100444.22;4924385;29;20194;-66
2021/12/27 06:23:09;;;;;;;48.13;27.80;;;-4.30;99.90;;;-4.33;61.40;100439.28;4926355;29;20182;-65
2021/12/27 06:25:37;;;;;;;56.78;33.63;;;-4.30;99.90;;;-4.36;61.62;100438.69;4927534;29;20224;-65
2021/12/27 06:28:06;;;;;;;53.97;25.77;;;-4.20;99.90;;;-4.42;61.85;100432.09;4919163;29;20178;-65
2021/12/27 06:30:36;;;;;;;49.30;30.88;;;-4.30;99.90;;;-4.45;62.08;100425.22;4917304;29;20356;-63
2021/12/27 06:33:06;;;;;;;56.40;28.77;;;-4.30;99.90;;;-4.51;62.39;100430.16;4916418;29;20193;-64
2021/12/27 06:35:35;;;;;;;55.30;30.50;;;-4.30;99.90;;;-4.52;62.65;100424.03;4916045;29;20219;-64
2021/12/27 06:38:04;;;;;;;60.92;31.52;;;-4.30;99.90;;;-4.41;62.97;100425.84;4916424;29;20273;-65
2021/12/27 06:40:33;;;;;;;55.35;30.70;;;-4.30;99.90;;;-4.39;63.55;100423.91;4916123;29;20182;-64
2021/12/27 06:43:02;;;;;;;62.17;32.60;;;-4.30;99.90;;;-4.33;63.23;100425.25;4916126;29;20651;-65
2021/12/27 06:45:30;;;;;;;48.63;30.10;;;-4.20;99.90;;;-4.32;63.93;100426.94;4915784;29;20717;-64
2021/12/27 06:48:00;;;;;;;49.45;28.35;;;-4.20;99.90;;;-4.29;64.20;100416.97;4916504;29;20182;-65
2021/12/27 06:50:28;;;;;;;55.15;31.00;;;-4.20;99.90;;;-4.34;64.69;100410.34;4916190;29;20194;-65
2021/12/27 06:52:57;;;;;;;56.35;29.52;;;-4.20;99.90;;;-4.38;64.80;100417.69;4919381;29;20193;-65
2021/12/27 06:55:25;;;;;;;58.60;30.80;;;-4.30;99.90;;;-4.35;65.11;100425.34;4919622;29;20220;-64
2021/12/27 06:57:53;;;;;;;52.30;29.17;;;-4.20;99.90;;;-4.34;64.71;100415.63;4919888;29;20199;-65
2021/12/27 07:00:22;;;;;;;44.55;28.05;;;-4.20;99.90;;;-4.35;64.70;100419.22;4919874;29;20194;-65
2021/12/27 07:02:51;;;;;;;57.15;26.83;;;-4.20;99.90;;;-4.25;64.98;100426.31;4920669;29;20193;-66
2021/12/27 07:05:21;;;;;;;52.90;31.00;;;-4.20;99.90;;;-4.13;64.80;100421.91;4921657;29;20606;-66
2021/12/27 07:07:49;;;;;;;49.75;29.33;;;-4.10;99.90;;;-4.19;65.18;100420.56;4920759;29;20208;-66
2021/12/27 07:10:19;;;;;;;47.13;29.55;;;-4.10;99.90;;;-4.12;64.91;100420.94;4920768;29;20513;-65
2021/12/27 07:12:47;;;;;;;57.58;31.15;;;-4.00;99.90;;;-4.09;64.80;100416.25;4920776;29;20174;-65
2021/12/27 07:15:16;;;;;;;49.22;29.95;;;-4.00;99.90;;;-4.13;64.91;100414.81;4921460;29;20241;-65
2021/12/27 07:17:44;;;;;;;54.40;30.58;;;-4.00;99.90;;;-4.00;64.67;100409.41;4920630;29;20206;-65
2021/12/27 07:20:13;;;;;;;55.25;29.00;;;-3.90;99.90;;;-4.04;65.02;100418.53;4920317;29;20197;-65
2021/12/27 07:22:44;;;;;;;56.92;32.25;;;-3.90;99.90;;;-3.90;64.89;100418.28;4923372;29;20213;-65
2021/12/27 07:25:12;;;;;;;53.60;31.65;;;-3.90;99.90;;;-3.90;65.23;100420.94;4925292;29;20245;-66
2021/12/27 07:27:41;;;;;;;60.30;32.22;;;-3.80;99.90;;;-3.92;64.71;100416.72;4920541;29;20201;-65
2021/12/27 07:30:13;;;;;;;52.95;30.65;;;-3.80;99.90;;;-3.82;64.90;100422.94;4919849;29;20201;-65
2021/12/27 07:32:41;;;;;;;57.97;31.98;;;-3.70;99.90;;;-3.77;64.64;100415.50;4919174;29;20185;-64
2021/12/27 07:35:11;;;;;;;59.70;31.90;;;-3.70;99.90;;;-3.71;64.87;100426.44;4918814;29;20248;-66
2021/12/27 07:37:40;;;;;;;54.10;31.52;;;-3.70;99.90;;;-3.76;64.95;100417.19;4919260;29;20182;-63
2021/12/27 07:40:13;;;;;;;54.28;32.75;;;-3.60;99.90;;;-3.83;65.29;100416.00;4917405;29;20206;-67
2021/12/27 07:42:41;;;;;;;63.20;30.77;;;-3.70;99.90;;;-3.78;65.51;100411.19;4919019;29;20601;-66
2021/12/27 07:45:11;;;;;;;61.22;31.38;;;-3.70;99.90;;;-3.84;65.04;100414.31;4918928;29;20273;-62
2021/12/27 07:47:39;;;;;;;60.60;33.53;;;-3.70;99.90;;;-3.90;65.39;100409.50;4919523;29;20845;-64
2021/12/27 07:50:11;;;;;;;56.67;33.17;;;-3.80;99.90;;;-3.87;65.30;100402.16;4919677;29;20190;-66
2021/12/27 07:52:40;;;;;;;73.00;32.08;;;-3.70;99.90;;;-3.80;65.53;100407.81;4919751;29;20198;-66
2021/12/27 07:55:10;;;;;;;51.30;30.67;;;-3.70;99.90;;;-3.64;65.02;100408.28;4917160;29;20758;-64
2021/12/27 07:57:38;;;;;;;62.33;31.70;;;-3.60;99.90;;;-3.73;65.02;100409.88;4918957;29;20193;-66
2021/12/27 08:00:10;;;;;;;50.33;30.73;;;-3.60;99.90;;;-3.78;65.62;100409.38;4918295;29;20189;-64
2021/12/27 08:02:39;;;;;;;56.97;29.55;;;-3.60;99.90;;;-3.71;65.22;100404.44;4918785;29;20281;-65
2021/12/27 08:05:08;;;;;;;49.97;29.05;;;-3.60;99.90;;;-3.65;65.12;100415.38;4918855;29;20209;-64
2021/12/27 08:07:37;;;;;;;52.95;31.73;;;-3.60;99.90;;;-3.67;65.77;100412.00;4918554;29;20178;-65
2021/12/27 08:10:07;;;;;;;53.58;31.75;;;-3.60;99.90;;;-3.72;65.05;100413.31;4918275;29;20198;-65
2021/12/27 08:12:37;;;;;;;57.33;31.10;;;-3.60;99.90;;;-3.76;65.58;100410.09;4918793;29;20204;-65
2021/12/27 08:15:09;;;;;;;52.60;30.98;;;-3.60;99.90;;;-3.69;65.66;100406.00;4918413;29;20227;-65
2021/12/27 08:17:38;;;;;;;56.42;31.90;;;-3.60;99.90;;;-3.49;65.24;100404.41;4918524;29;20182;-65
2021/12/27 08:20:09;;;;;;;56.30;31.63;;;-3.50;99.90;;;-3.50;65.09;100410.66;4923823;29;20210;-66
2021/12/27 08:22:37;;;;;;;63.42;33.72;;;-3.40;99.90;;;-3.57;65.17;100402.34;4929164;29;20182;-67
2021/12/27 08:25:07;;;;;;;52.22;33.42;;;-3.50;99.90;;;-3.57;65.40;100402.34;4926208;29;20446;-65
2021/12/27 08:27:40;;;;;;;54.92;30.70;;;-3.40;99.90;;;-3.43;65.00;100405.69;4928724;29;20209;-66
2021/12/27 08:30:12;;;;;;;62.00;34.33;;;-3.40;99.90;;;-3.40;65.32;100397.50;4925253;29;20181;-66
2021/12/27 08:32:45;;;;;;;48.58;28.08;;;-3.40;99.90;;;-3.38;65.49;100395.56;4924702;29;20182;-66
2021/12/27 08:35:15;;;;;;;45.03;27.85;;;-3.30;99.90;;;-3.41;65.17;100404.59;4923930;29;20272;-67
2021/12/27 08:37:45;;;;;;;55.42;32.92;;;-3.30;99.90;;;-3.28;65.54;100391.19;4922002;29;20182;-63
2021/12/27 08:40:14;;;;;;;63.45;31.55;;;-3.20;99.90;;;-3.26;65.31;100399.88;4920837;29;20286;-63
2021/12/27 08:42:44;;;;;;;49.97;29.35;;;-3.20;99.90;;;-3.17;64.88;100396.47;4918040;29;20197;-66
2021/12/27 08:45:13;;;;;;;59.72;31.40;;;-3.10;99.90;;;-3.16;65.06;100406.09;4918552;29;20642;-66
2021/12/27 08:47:42;;;;;;;53.90;30.42;;;-3.10;99.90;;;-3.15;65.33;100398.00;4918460;29;20331;-65
2021/12/27 08:50:12;;;;;;;57.08;30.17;;;-3.10;99.90;;;-3.19;64.72;100396.56;4917842;29;20208;-65
2021/12/27 08:52:42;;;;;;;55.97;30.60;;;-3.10;99.90;;;-3.03;64.73;100390.00;4919548;29;20182;-65
2021/12/27 08:55:11;;;;;;;45.10;31.33;;;-3.00;99.90;;;-2.97;64.13;100386.88;4921112;29;20209;-64
2021/12/27 08:57:42;;;;;;;53.80;32.10;;;-3.00;99.90;;;-2.98;64.47;100380.72;4917913;29;20201;-62
2021/12/27 09:00:16;;;;;;;54.95;32.03;;;-2.90;99.90;;;-3.00;64.34;100379.19;4917657;29;20609;-65
2021/12/27 09:02:46;;;;;;;61.30;31.50;;;-2.90;99.90;;;-2.91;64.67;100383.72;4917520;29;20573;-65
2021/12/27 09:05:15;;;;;;;55.53;31.75;;;-2.90;99.90;;;-2.77;64.65;100386.03;4917356;29;20209;-65
2021/12/27 09:07:43;;;;;;;66.05;32.58;;;-2.80;99.90;;;-2.84;64.15;100382.22;4917774;29;20174;-62
2021/12/27 09:10:13;;;;;;;50.75;29.58;;;-2.80;99.90;;;-2.70;65.00;100389.84;4917506;29;20245;-63
2021/12/27 09:12:42;;;;;;;55.75;31.00;;;-2.70;99.90;;;-2.69;64.41;100380.91;4916249;29;20193;-65
2021/12/27 09:15:14;;;;;;;43.75;27.90;;;-2.60;99.90;;;-2.58;64.02;100386.16;4917536;29;20217;-65
2021/12/27 09:17:43;;;;;;;51.65;29.27;;;-2.60;99.90;;;-2.54;64.36;100382.28;4917793;29;20209;-65
2021/12/27 09:20:12;;;;;;;54.83;30.92;;;-2.60;99.90;;;-2.41;64.05;100380.25;4916697;29;20624;-66
2021/12/27 09:22:41;;;;;;;47.53;29.50;;;-2.50;99.90;;;-2.33;63.73;100377.78;4917717;29;20280;-65
2021/12/27 09:25:10;;;;;;;51.13;28.95;;;-2.40;99.90;;;-2.19;63.84;100376.59;4917073;29;20694;-65
2021/12/27 09:27:39;;;;;;;53.67;29.02;;;-2.30;99.90;;;-2.23;63.21;100369.88;4917084;29;20260;-66
2021/12/27 09:30:08;;;;;;;43.05;28.25;;;-2.20;99.90;;;-2.46;63.70;100366.53;4917044;29;20193;-66
2021/12/27 09:32:39;;;;;;;52.80;29.67;;;-2.30;99.90;;;-2.36;64.15;100375.38;4916770;29;20194;-66
2021/12/27 09:35:12;;;;;;;48.70;32.05;;;-2.30;99.90;;;-2.16;63.74;100370.16;4917107;29;20347;-65
2021/12/27 09:37:41;;;;;;;53.13;29.60;;;-2.20;99.90;;;-2.30;63.87;100368.72;4916701;29;20198;-65
2021/12/27 09:40:11;;;;;;;57.28;28.05;;;-2.20;99.90;;;-2.14;63.50;100373.53;4916994;29;20265;-65
2021/12/27 09:42:40;;;;;;;48.53;30.48;;;-2.20;99.90;;;-2.07;63.52;100375.50;4916632;29;20178;-64
2021/12/27 09:45:09;;;;;;;55.55;30.85;;;-2.10;99.90;;;-2.02;63.63;100373.28;4916423;29;20674;-66
2021/12/27 09:47:40;;;;;;;50.17;28.20;;;-2.00;99.90;;;-1.99;63.46;100358.94;4916754;29;20572;-67
2021/12/27 09:50:22;;;;;;;56.63;31.20;;;-2.00;99.90;;;-1.98;62.95;100360.59;4915752;29;20193;-65
2021/12/27 09:52:51;;;;;;;48.75;29.48;;;-2.00;99.90;;;-1.84;63.32;100354.94;4917245;29;20319;-66
2021/12/27 09:55:19;;;;;;;51.90;30.75;;;-1.90;99.90;;;-1.83;62.21;100343.34;4916899;29;20220;-66
2021/12/27 09:57:48;;;;;;;45.88;30.00;;;-1.80;99.90;;;-1.98;62.75;100337.56;4915540;29;20260;-65
2021/12/27 10:00:18;;;;;;;50.88;28.58;;;-1.90;99.90;;;-2.01;63.49;100340.50;4916767;29;20197;-65
2021/12/27 10:02:54;;;;;;;62.45;29.23;;;-1.90;99.90;;;-2.00;62.80;100338.69;4916926;29;20193;-65
2021/12/27 10:05:26;;;;;;;57.38;32.47;;;-1.90;99.90;;;-2.05;63.53;100341.75;4916691;29;20237;-67
2021/12/27 10:07:56;;;;;;;45.17;28.33;;;-2.00;99.90;;;-1.97;63.46;100341.06;4916384;29;20643;-65
2021/12/27 10:10:33;;;;;;;53.22;31.80;;;-1.90;99.90;;;-1.89;62.74;100341.25;4916776;29;20287;-66